createdAt,value
2022-08-25T00:02:03.020Z,101162.78
2022-08-25T00:04:30.275Z,101184.03
2022-08-25T00:07:02.143Z,101159.84
2022-08-25T00:09:30.677Z,101179.41
2022-08-25T00:11:57.484Z,101171.91
2022-08-25T00:14:37.153Z,101184.44
2022-08-25T00:17:04.780Z,101174.59
2022-08-25T00:19:35.002Z,101183.38
2022-08-25T00:22:02.690Z,101176.13
2022-08-25T00:24:29.943Z,101175.25
2022-08-25T00:26:58.769Z,101171.09
2022-08-25T00:29:26.799Z,101179.06
2022-08-25T00:31:55.057Z,101184.97
2022-08-25T00:34:30.137Z,101178.09
2022-08-25T00:36:57.016Z,101162.25
2022-08-25T00:39:24.964Z,101181.25
2022-08-25T00:41:53.966Z,101182.88
2022-08-25T00:44:20.798Z,101185.38
2022-08-25T00:46:54.551Z,101180.97
2022-08-25T00:49:28.359Z,101175.38
2022-08-25T00:52:25.866Z,101175.97
2022-08-25T00:55:03.017Z,101177.22
2022-08-25T00:57:37.830Z,101176.59
2022-08-25T01:00:14.475Z,101132.28
2022-08-25T01:02:41.606Z,101160.38
2022-08-25T01:05:08.822Z,101177.06
2022-08-25T01:07:36.513Z,101142.09
2022-08-25T01:10:04.832Z,101181.00
2022-08-25T01:12:31.466Z,101167.88
2022-08-25T01:14:58.802Z,101162.47
2022-08-25T01:17:28.167Z,101155.22
2022-08-25T01:19:55.873Z,101169.22
2022-08-25T01:22:22.858Z,101185.53
2022-08-25T01:25:27.747Z,101196.81
2022-08-25T01:27:54.306Z,101200.56
2022-08-25T01:30:21.766Z,101175.16
2022-08-25T01:32:48.860Z,101156.88
2022-08-25T01:35:15.885Z,101199.16
2022-08-25T01:37:42.639Z,101186.88
2022-08-25T01:40:09.775Z,101195.00
2022-08-25T01:43:07.749Z,101183.56
2022-08-25T01:45:35.551Z,101187.31
2022-08-25T01:48:02.661Z,101191.47
2022-08-25T01:50:29.538Z,101187.09
2022-08-25T01:53:19.495Z,101179.81
2022-08-25T01:55:51.966Z,101166.88
2022-08-25T01:58:40.405Z,101185.03
2022-08-25T02:01:10.132Z,101154.38
2022-08-25T02:03:42.296Z,101173.56
2022-08-25T02:06:12.427Z,101171.28
2022-08-25T02:08:39.873Z,101151.91
2022-08-25T02:11:11.921Z,101164.38
2022-08-25T02:13:40.418Z,101168.56
2022-08-25T02:16:08.435Z,101064.88
2022-08-25T02:18:35.145Z,101151.91
2022-08-25T02:21:02.248Z,101168.59
2022-08-25T02:23:28.888Z,101141.50
2022-08-25T02:25:57.245Z,101168.19
2022-08-25T02:28:24.316Z,101164.66
2022-08-25T02:30:53.225Z,101160.69
2022-08-25T02:33:26.926Z,101168.81
2022-08-25T02:35:57.919Z,101170.47
2022-08-25T02:38:25.092Z,101167.56
2022-08-25T02:40:52.351Z,101165.69
2022-08-25T02:43:19.015Z,101159.03
2022-08-25T02:45:45.698Z,101180.28
2022-08-25T02:48:12.318Z,101172.16
2022-08-25T02:50:39.062Z,101173.63
2022-08-25T02:53:05.752Z,101158.22
2022-08-25T02:55:34.665Z,101156.97
2022-08-25T02:58:01.284Z,101167.38
2022-08-25T03:00:27.901Z,101150.72
2022-08-25T03:02:54.503Z,101157.78
2022-08-25T03:05:21.379Z,101159.41
2022-08-25T03:07:48.213Z,101095.28
2022-08-25T03:10:18.839Z,101104.44
2022-08-25T03:12:45.739Z,101136.97
2022-08-25T03:15:18.683Z,101155.72
2022-08-25T03:17:46.202Z,101127.41
2022-08-25T03:20:13.372Z,101075.31
2022-08-25T03:22:40.081Z,101153.03
2022-08-25T03:25:25.725Z,101147.81
2022-08-25T03:27:52.528Z,101152.03
2022-08-25T03:30:20.069Z,101134.91
2022-08-25T03:32:46.841Z,101169.53
2022-08-25T03:35:13.613Z,101160.97
2022-08-25T03:37:40.798Z,101145.75
2022-08-25T03:40:13.605Z,101125.53
2022-08-25T03:42:45.155Z,101159.97
2022-08-25T03:45:14.252Z,101154.94
2022-08-25T03:47:41.213Z,101153.91
2022-08-25T03:50:10.403Z,101148.88
2022-08-25T03:52:42.392Z,101145.34
2022-08-25T03:55:11.875Z,101153.69
2022-08-25T03:57:38.617Z,101147.03
2022-08-25T04:00:08.172Z,101155.13
2022-08-25T04:02:34.877Z,101144.72
2022-08-25T04:05:01.742Z,101076.38
2022-08-25T04:07:28.352Z,101156.63
2022-08-25T04:09:56.166Z,101158.28
2022-08-25T04:12:23.241Z,101151.19
2022-08-25T04:14:50.335Z,101159.13
2022-08-25T04:17:17.556Z,101149.50
2022-08-25T04:19:44.341Z,101156.19
2022-08-25T04:22:11.266Z,101160.34
2022-08-25T04:24:39.956Z,101131.38
2022-08-25T04:27:06.535Z,101175.16
2022-08-25T04:29:33.942Z,101158.69
2022-08-25T04:32:00.610Z,101167.66
2022-08-25T04:34:30.296Z,101164.94
2022-08-25T04:37:03.379Z,101173.50
2022-08-25T04:39:29.978Z,101164.94
2022-08-25T04:41:56.682Z,101157.22
2022-08-25T04:44:23.619Z,101160.13
2022-08-25T04:46:50.324Z,101172.25
2022-08-25T04:49:16.978Z,101146.59
2022-08-25T04:51:43.740Z,101152.00
2022-08-25T04:54:13.814Z,101147.66
2022-08-25T04:56:41.497Z,101172.44
2022-08-25T04:59:11.836Z,101162.22
2022-08-25T05:01:39.810Z,101169.53
2022-08-25T05:04:08.847Z,101163.69
2022-08-25T05:06:41.919Z,101171.81
2022-08-25T05:09:09.998Z,101074.28
2022-08-25T05:11:37.399Z,101147.84
2022-08-25T05:14:04.710Z,101157.44
2022-08-25T05:16:31.713Z,101145.34
2022-08-25T05:18:58.507Z,101163.47
2022-08-25T05:21:28.733Z,101134.72
2022-08-25T05:23:57.735Z,101104.50
2022-08-25T05:26:26.428Z,101153.28
2022-08-25T05:28:55.069Z,101146.59
2022-08-25T05:31:23.820Z,101124.50
2022-08-25T05:33:51.063Z,101165.97
2022-08-25T05:36:20.145Z,101099.91
2022-08-25T05:38:47.327Z,101160.78
2022-08-25T05:41:16.849Z,101165.78
2022-08-25T05:43:45.910Z,101168.28
2022-08-25T05:46:13.317Z,101160.78
2022-08-25T05:48:40.320Z,101166.22
2022-08-25T05:51:10.343Z,101173.09
2022-08-25T05:53:39.215Z,101171.00
2022-08-25T05:56:06.150Z,101155.34
2022-08-25T05:58:32.882Z,101163.25
2022-08-25T06:01:19.629Z,101167.44
2022-08-25T06:03:47.638Z,101161.81
2022-08-25T06:06:15.982Z,101162.44
2022-08-25T06:08:44.281Z,101120.13
2022-08-25T06:11:12.699Z,101149.03
2022-08-25T06:13:39.971Z,101148.19
2022-08-25T06:16:07.205Z,101132.31
2022-08-25T06:18:33.909Z,101151.09
2022-08-25T06:21:08.387Z,101127.75
2022-08-25T06:23:35.027Z,101137.69
2022-08-25T06:26:01.986Z,101137.88
2022-08-25T06:28:28.641Z,101137.25
2022-08-25T06:31:00.107Z,101135.59
2022-08-25T06:33:26.706Z,101138.31
2022-08-25T06:35:56.023Z,101074.41
2022-08-25T06:38:23.872Z,101138.09
2022-08-25T06:40:52.065Z,101133.31
2022-08-25T06:43:22.133Z,101137.88
2022-08-25T06:45:48.827Z,101108.84
2022-08-25T06:48:15.941Z,101108.03
2022-08-25T06:50:43.386Z,101131.44
2022-08-25T06:53:10.046Z,101136.66
2022-08-25T06:55:36.959Z,101067.53
2022-08-25T06:58:05.211Z,101132.34
2022-08-25T07:00:33.420Z,101075.94
2022-08-25T07:03:01.489Z,101125.03
2022-08-25T07:05:40.810Z,101134.38
2022-08-25T07:08:11.879Z,101128.03
2022-08-25T07:10:39.009Z,101127.56
2022-08-25T07:13:05.682Z,101054.69
2022-08-25T07:15:32.309Z,101089.53
2022-08-25T07:17:59.112Z,101111.56
2022-08-25T07:22:53.149Z,101133.50
2022-08-25T07:25:19.890Z,101107.19
2022-08-25T07:27:46.595Z,101106.00
2022-08-25T07:30:13.480Z,101125.94
2022-08-25T07:32:43.015Z,101126.84
2022-08-25T07:35:18.958Z,101111.03
2022-08-25T07:37:58.177Z,101124.88
2022-08-25T07:40:31.803Z,101122.97
2022-08-25T07:43:01.693Z,101032.28
2022-08-25T07:45:31.644Z,101082.09
2022-08-25T07:48:01.094Z,101131.41
2022-08-25T07:50:29.384Z,101071.44
2022-08-25T07:52:57.856Z,101121.69
2022-08-25T07:55:27.218Z,101138.56
2022-08-25T07:57:57.238Z,101126.53
2022-08-25T08:00:27.791Z,101117.81
2022-08-25T08:02:54.916Z,101120.16
2022-08-25T08:05:24.017Z,101139.44
2022-08-25T08:07:51.598Z,101139.56
2022-08-25T08:10:47.893Z,101126.94
2022-08-25T08:13:07.565Z,101105.44
2022-08-25T08:15:35.500Z,101124.34
2022-08-25T08:18:03.169Z,101136.81
2022-08-25T08:20:42.706Z,101133.63
2022-08-25T08:23:11.165Z,101093.56
2022-08-25T08:25:37.904Z,101124.69
2022-08-25T08:28:04.570Z,101127.63
2022-08-25T08:30:36.592Z,101103.56
2022-08-25T08:33:10.026Z,101122.56
2022-08-25T08:35:38.586Z,101094.34
2022-08-25T08:38:13.135Z,101117.63
2022-08-25T08:41:13.802Z,101032.94
2022-08-25T08:43:43.076Z,101075.41
2022-08-25T08:46:10.015Z,101123.69
2022-08-25T08:48:59.068Z,101109.34
2022-08-25T08:51:36.611Z,101107.13
2022-08-25T08:54:20.523Z,101118.47
2022-08-25T08:56:55.243Z,101066.22
2022-08-25T08:59:30.040Z,101061.09
2022-08-25T09:02:04.064Z,101113.25
2022-08-25T09:04:57.999Z,101111.63
2022-08-25T09:07:32.956Z,101113.06
2022-08-25T09:09:59.811Z,101056.25
2022-08-25T09:12:34.204Z,101106.28
2022-08-25T09:15:00.881Z,100941.63
2022-08-25T09:17:54.695Z,101097.19
2022-08-25T09:20:40.486Z,101094.34
2022-08-25T09:23:31.667Z,101099.75
2022-08-25T09:26:27.411Z,101072.69
2022-08-25T09:29:06.362Z,101022.59
2022-08-25T09:31:43.339Z,101089.94
2022-08-25T09:34:21.456Z,101085.00
2022-08-25T09:36:52.822Z,101035.44
2022-08-25T09:39:21.132Z,101077.34
2022-08-25T09:41:57.396Z,101072.06
2022-08-25T09:44:42.345Z,101075.59
2022-08-25T09:47:18.319Z,101067.31
2022-08-25T09:49:51.101Z,101010.25
2022-08-25T09:52:32.820Z,101066.97
2022-08-25T09:55:16.313Z,101047.81
2022-08-25T09:57:42.876Z,101009.72
2022-08-25T10:00:34.006Z,101059.22
2022-08-25T10:03:24.842Z,101023.56
2022-08-25T10:06:07.816Z,100930.66
2022-08-25T10:08:45.707Z,101061.81
2022-08-25T10:11:15.371Z,101037.28
2022-08-25T10:14:00.667Z,101054.56
2022-08-25T10:16:36.098Z,101041.41
2022-08-25T10:19:08.111Z,101051.63
2022-08-25T10:21:37.100Z,101049.75
2022-08-25T10:24:05.965Z,101024.22
2022-08-25T10:26:52.340Z,101038.63
2022-08-25T10:29:45.829Z,101052.81
2022-08-25T10:32:18.292Z,101046.34
2022-08-25T10:34:51.451Z,101044.22
2022-08-25T10:37:53.449Z,100978.22
2022-08-25T10:40:45.103Z,101034.44
2022-08-25T10:43:49.808Z,101004.75
2022-08-25T10:46:36.785Z,101018.03
2022-08-25T10:49:03.380Z,101018.03
2022-08-25T10:51:41.535Z,101014.72
2022-08-25T10:55:12.807Z,100992.19
2022-08-25T10:57:46.520Z,101006.75
2022-08-25T11:00:17.963Z,101002.59
2022-08-25T11:02:47.348Z,101009.75
2022-08-25T11:05:28.290Z,101003.13
2022-08-25T11:08:06.752Z,100961.34
2022-08-25T11:11:09.452Z,101006.38
2022-08-25T11:13:47.663Z,101001.97
2022-08-25T11:16:26.939Z,100992.63
2022-08-25T11:19:17.084Z,100996.47
2022-08-25T11:21:46.466Z,100993.41
2022-08-25T11:24:16.095Z,101000.53
2022-08-25T11:26:51.719Z,100925.44
2022-08-25T11:29:34.191Z,100951.16
2022-08-25T11:32:02.020Z,100874.59
2022-08-25T11:34:33.240Z,100828.19
2022-08-25T11:37:11.124Z,100975.25
2022-08-25T11:40:00.253Z,100991.13
2022-08-25T11:42:36.120Z,100988.00
2022-08-25T11:45:28.918Z,100951.41
2022-08-25T11:48:49.963Z,100972.31
2022-08-25T11:51:36.514Z,100974.72
2022-08-25T11:54:15.370Z,100973.75
2022-08-25T11:56:42.193Z,100971.38
2022-08-25T11:59:10.001Z,100963.81
2022-08-25T12:01:40.517Z,100966.69
2022-08-25T12:04:31.241Z,100930.22
2022-08-25T12:07:07.322Z,100962.66
2022-08-25T12:09:55.089Z,100950.19
2022-08-25T12:12:32.529Z,100972.44
2022-08-25T12:15:21.147Z,100957.78
2022-08-25T12:18:10.647Z,100957.25
2022-08-25T12:20:53.746Z,100877.44
2022-08-25T12:23:32.376Z,100969.31
2022-08-25T12:26:20.891Z,100954.03
2022-08-25T12:28:59.817Z,100950.97
2022-08-25T12:31:43.228Z,100966.72
2022-08-25T12:34:37.643Z,100960.75
2022-08-25T12:37:13.324Z,100906.06
2022-08-25T12:39:51.138Z,100895.22
2022-08-25T12:42:28.638Z,100886.63
2022-08-25T12:45:31.424Z,100896.88
2022-08-25T12:48:27.944Z,100934.97
2022-08-25T12:51:03.365Z,100882.66
2022-08-25T12:53:38.892Z,100885.53
2022-08-25T12:56:05.505Z,100848.56
2022-08-25T12:58:59.883Z,100902.19
2022-08-25T13:01:36.728Z,100918.44
2022-08-25T13:04:22.705Z,100911.50
2022-08-25T13:07:23.196Z,100919.16
2022-08-25T13:10:15.850Z,100914.91
2022-08-25T13:13:06.192Z,100908.09
2022-08-25T13:15:41.096Z,100914.88
2022-08-25T13:18:27.665Z,100859.41
2022-08-25T13:21:29.111Z,100913.50
2022-08-25T13:24:01.375Z,100909.53
2022-08-25T13:26:48.440Z,100829.56
2022-08-25T13:29:26.295Z,100912.03
2022-08-25T13:31:59.926Z,100868.81
2022-08-25T13:34:34.744Z,100897.31
2022-08-25T13:37:29.767Z,100896.91
2022-08-25T13:40:17.926Z,100892.28
2022-08-25T13:42:54.403Z,100874.56
2022-08-25T13:45:29.997Z,100876.00
2022-08-25T13:47:59.423Z,100803.97
2022-08-25T13:50:26.333Z,100736.97
2022-08-25T13:52:56.149Z,100816.63
2022-08-25T13:55:27.588Z,100844.81
2022-08-25T13:57:59.430Z,100876.63
2022-08-25T14:00:32.433Z,100799.41
2022-08-25T14:03:02.151Z,100853.78
2022-08-25T14:05:42.720Z,100858.03
2022-08-25T14:08:31.966Z,100869.00
2022-08-25T14:11:29.711Z,100816.50
2022-08-25T14:14:12.623Z,100852.47
2022-08-25T14:16:47.305Z,100860.78
2022-08-25T14:19:21.509Z,100660.44
2022-08-25T14:21:49.704Z,100854.13
2022-08-25T14:24:23.964Z,100848.13
2022-08-25T14:26:54.155Z,100851.19
2022-08-25T14:29:22.303Z,100846.25
2022-08-25T14:31:50.024Z,100822.13
2022-08-25T14:34:21.541Z,100744.28
2022-08-25T14:36:48.956Z,100867.66
2022-08-25T14:39:16.163Z,100860.50
2022-08-25T14:41:47.420Z,100850.91
2022-08-25T14:44:20.273Z,100832.53
2022-08-25T14:46:52.798Z,100828.47
2022-08-25T14:49:25.434Z,100828.72
2022-08-25T14:51:52.319Z,100814.50
2022-08-25T14:54:25.975Z,100835.81
2022-08-25T14:56:53.615Z,100785.94
2022-08-25T14:59:20.356Z,100838.09
2022-08-25T15:01:47.542Z,100773.09
2022-08-25T15:04:23.436Z,100818.91
2022-08-25T15:06:56.304Z,100761.31
2022-08-25T15:09:23.252Z,100708.66
2022-08-25T15:11:54.593Z,100841.41
2022-08-25T15:14:28.909Z,100820.56
2022-08-25T15:16:59.991Z,100809.31
2022-08-25T15:19:27.571Z,100823.88
2022-08-25T15:21:58.248Z,100778.03
2022-08-25T15:24:27.339Z,100769.81
2022-08-25T15:27:03.955Z,100794.78
2022-08-25T15:29:34.773Z,100816.72
2022-08-25T15:32:05.236Z,100790.94
2022-08-25T15:34:32.260Z,100809.59
2022-08-25T15:37:07.806Z,100761.88
2022-08-25T15:39:35.197Z,100801.09
2022-08-25T15:42:02.656Z,100758.88
2022-08-25T15:44:33.861Z,100717.75
2022-08-25T15:47:02.931Z,100806.91
2022-08-25T15:49:31.403Z,100792.34
2022-08-25T15:51:58.351Z,100755.84
2022-08-25T15:54:26.802Z,100773.44
2022-08-25T15:56:55.041Z,100774.50
2022-08-25T15:59:21.898Z,100751.50
2022-08-25T16:01:48.928Z,100784.69
2022-08-25T16:04:15.791Z,100788.81
2022-08-25T16:06:44.601Z,100790.22
2022-08-25T16:09:12.059Z,100732.84
2022-08-25T16:11:39.047Z,100771.81
2022-08-25T16:14:06.165Z,100724.06
2022-08-25T16:16:33.369Z,100680.72
2022-08-25T16:19:00.532Z,100777.84
2022-08-25T16:21:31.176Z,100771.28
2022-08-25T16:24:04.411Z,100757.25
2022-08-25T16:26:36.438Z,100713.97
2022-08-25T16:29:06.430Z,100636.84
2022-08-25T16:31:33.426Z,100747.97
2022-08-25T16:34:01.572Z,100718.84
2022-08-25T16:36:28.551Z,100675.75
2022-08-25T16:38:57.453Z,100761.09
2022-08-25T16:41:34.114Z,100762.78
2022-08-25T16:44:10.983Z,100727.94
2022-08-25T16:46:40.638Z,100755.91
2022-08-25T16:49:07.833Z,100760.34
2022-08-25T16:51:34.575Z,100735.34
2022-08-25T16:54:22.256Z,100654.97
2022-08-25T16:56:54.895Z,100732.88
2022-08-25T16:59:22.266Z,100658.78
2022-08-25T17:01:50.804Z,100659.34
2022-08-25T17:04:17.574Z,100739.75
2022-08-25T17:06:51.819Z,100740.53
2022-08-25T17:09:23.809Z,100709.25
2022-08-25T17:11:54.284Z,100741.66
2022-08-25T17:14:21.992Z,100729.56
2022-08-25T17:16:51.173Z,100725.47
2022-08-25T17:19:18.632Z,100707.63
2022-08-25T17:21:49.984Z,100733.69
2022-08-25T17:24:17.209Z,100740.53
2022-08-25T17:26:49.866Z,100745.47
2022-08-25T17:29:19.601Z,100715.56
2022-08-25T17:31:48.402Z,100734.81
2022-08-25T17:34:16.141Z,100742.75
2022-08-25T17:36:44.054Z,100744.94
2022-08-25T17:39:13.075Z,100746.03
2022-08-25T17:41:42.035Z,100749.06
2022-08-25T17:44:08.671Z,100738.06
2022-08-25T17:46:38.452Z,100725.66
2022-08-25T17:49:09.112Z,100713.56
2022-08-25T17:51:36.551Z,100736.63
2022-08-25T17:54:03.144Z,100726.75
2022-08-25T17:56:30.160Z,100735.53
2022-08-25T17:58:57.233Z,100733.31
2022-08-25T18:01:30.583Z,100755.28
2022-08-25T18:03:59.242Z,100750.06
2022-08-25T18:06:29.571Z,100736.59
2022-08-25T18:08:59.977Z,100661.31
2022-08-25T18:11:27.988Z,100763.47
2022-08-25T18:13:55.036Z,100744.78
2022-08-25T18:16:22.708Z,100771.69
2022-08-25T18:18:49.435Z,100771.09
2022-08-25T18:21:19.198Z,100717.22
2022-08-25T18:23:46.656Z,100757.63
2022-08-25T18:26:15.327Z,100762.28
2022-08-25T18:28:43.995Z,100778.19
2022-08-25T18:31:13.196Z,100788.06
2022-08-25T18:33:44.612Z,100774.53
2022-08-25T18:36:12.533Z,100791.88
2022-08-25T18:38:59.938Z,100789.94
2022-08-25T18:41:32.778Z,100790.25
2022-08-25T18:43:59.330Z,100791.34
2022-08-25T18:46:26.097Z,100788.75
2022-08-25T18:48:53.276Z,100795.88
2022-08-25T18:51:23.266Z,100792.81
2022-08-25T18:53:54.725Z,100765.28
2022-08-25T18:56:26.740Z,100795.72
2022-08-25T18:58:53.403Z,100802.53
2022-08-25T19:01:21.350Z,100815.19
2022-08-25T19:03:48.363Z,100814.63
2022-08-25T19:06:15.653Z,100803.88
2022-08-25T19:08:42.371Z,100815.41
2022-08-25T19:11:10.113Z,100652.84
2022-08-25T19:13:37.623Z,100808.22
2022-08-25T19:16:30.050Z,100810.06
2022-08-25T19:18:57.054Z,100821.31
2022-08-25T19:21:25.244Z,100834.75
2022-08-25T19:23:52.337Z,100822.09
2022-08-25T19:26:19.549Z,100811.66
2022-08-25T19:28:48.857Z,100798.34
2022-08-25T19:31:20.353Z,100847.25
2022-08-25T19:33:49.218Z,100842.25
2022-08-25T19:36:18.494Z,100849.03
2022-08-25T19:38:48.455Z,100841.63
2022-08-25T19:41:19.416Z,100850.06
2022-08-25T19:43:55.226Z,100815.25
2022-08-25T19:46:23.361Z,100701.50
2022-08-25T19:48:50.471Z,100731.22
2022-08-25T19:51:19.395Z,100860.00
2022-08-25T19:53:51.171Z,100812.69
2022-08-25T19:56:20.752Z,100834.25
2022-08-25T19:58:47.834Z,100819.81
2022-08-25T20:01:18.365Z,100845.09
2022-08-25T20:03:45.280Z,100859.38
2022-08-25T20:06:12.349Z,100853.31
2022-08-25T20:08:43.180Z,100784.50
2022-08-25T20:11:10.814Z,100845.63
2022-08-25T20:13:37.551Z,100856.13
2022-08-25T20:16:05.595Z,100856.66
2022-08-25T20:18:32.562Z,100833.25
2022-08-25T20:20:59.297Z,100849.66
2022-08-25T20:23:44.582Z,100860.28
2022-08-25T20:26:11.312Z,100818.56
2022-08-25T20:28:42.241Z,100842.53
2022-08-25T20:31:09.407Z,100867.03
2022-08-25T20:33:36.240Z,100868.66
2022-08-25T20:36:04.839Z,100841.63
2022-08-25T20:38:32.114Z,100813.78
2022-08-25T20:41:00.751Z,100870.75
2022-08-25T20:43:30.808Z,100867.44
2022-08-25T20:46:01.798Z,100869.06
2022-08-25T20:48:28.472Z,100868.31
2022-08-25T20:50:57.774Z,100742.53
2022-08-25T20:53:25.769Z,100845.00
2022-08-25T20:55:56.185Z,100884.94
2022-08-25T20:58:26.566Z,100856.50
2022-08-25T21:00:53.992Z,100873.06
2022-08-25T21:03:21.016Z,100893.09
2022-08-25T21:05:54.091Z,100888.03
2022-08-25T21:08:21.272Z,100853.72
2022-08-25T21:10:51.885Z,100888.97
2022-08-25T21:13:21.267Z,100892.84
2022-08-25T21:15:50.429Z,100900.66
2022-08-25T21:18:17.059Z,100896.66
2022-08-25T21:20:47.126Z,100890.13
2022-08-25T21:23:14.887Z,100839.28
2022-08-25T21:25:44.607Z,100891.84
2022-08-25T21:28:11.584Z,100882.47
2022-08-25T21:30:44.715Z,100852.72
2022-08-25T21:33:16.450Z,100819.59
2022-08-25T21:35:43.393Z,100890.84
2022-08-25T21:38:10.031Z,100833.03
2022-08-25T21:40:37.229Z,100894.19
2022-08-25T21:43:07.379Z,100891.44
2022-08-25T21:45:46.141Z,100894.66
2022-08-25T21:48:13.758Z,100830.22
2022-08-25T21:50:41.134Z,100871.31
2022-08-25T21:53:09.657Z,100874.28
2022-08-25T21:55:41.899Z,100873.38
2022-08-25T21:58:08.688Z,100892.84
2022-08-25T22:00:36.084Z,100877.34
2022-08-25T22:03:02.774Z,100886.44
2022-08-25T22:05:29.456Z,100880.00
2022-08-25T22:07:56.037Z,100872.19
2022-08-25T22:10:22.775Z,100877.00
2022-08-25T22:13:01.433Z,100834.22
2022-08-25T22:15:29.450Z,100871.47
2022-08-25T22:17:56.040Z,100877.75
2022-08-25T22:20:25.094Z,100876.56
2022-08-25T22:22:56.500Z,100874.94
2022-08-25T22:25:23.679Z,100826.44
2022-08-25T22:27:56.430Z,100845.94
2022-08-25T22:30:29.668Z,100856.94
2022-08-25T22:33:00.483Z,100883.56
2022-08-25T22:35:28.086Z,100880.53
2022-08-25T22:37:54.728Z,100836.28
2022-08-25T22:40:21.450Z,100844.72
2022-08-25T22:42:48.543Z,100858.47
2022-08-25T22:45:15.515Z,100879.50
2022-08-25T22:47:42.313Z,100878.28
2022-08-25T22:50:09.396Z,100874.38
2022-08-25T22:52:36.114Z,100864.69
2022-08-25T22:55:03.130Z,100871.06
2022-08-25T22:57:29.738Z,100865.97
2022-08-25T22:59:56.740Z,100841.38
2022-08-25T23:02:23.433Z,100868.69
2022-08-25T23:04:50.084Z,100858.97
2022-08-25T23:07:16.942Z,100864.78
2022-08-25T23:09:44.584Z,100856.66
2022-08-25T23:12:11.725Z,100868.97
2022-08-25T23:14:42.259Z,100864.00
2022-08-25T23:17:11.518Z,100864.00
2022-08-25T23:19:39.037Z,100863.41
2022-08-25T23:22:12.613Z,100858.47
2022-08-25T23:24:48.985Z,100852.53
2022-08-25T23:27:19.835Z,100774.06
2022-08-25T23:29:48.996Z,100812.75
2022-08-25T23:32:17.848Z,100701.81
2022-08-25T23:34:46.773Z,100721.91
2022-08-25T23:37:14.365Z,100853.75
2022-08-25T23:39:41.628Z,100844.75
2022-08-25T23:42:08.885Z,100843.75
2022-08-25T23:44:36.786Z,100852.69
2022-08-25T23:47:06.753Z,100839.78
2022-08-25T23:49:33.757Z,100797.16
2022-08-25T23:52:01.248Z,100826.63
2022-08-25T23:54:30.996Z,100748.19
2022-08-25T23:56:58.474Z,100833.34
2022-08-25T23:59:25.420Z,100820.72
